createdAt,value
2023-05-11T00:00:53.379Z,14.23
2023-05-11T00:03:20.158Z,14.82
2023-05-11T00:05:49.791Z,14.93
2023-05-11T00:08:17.279Z,14.60
2023-05-11T00:10:48.233Z,14.57
2023-05-11T00:13:15.008Z,14.25
2023-05-11T00:15:42.018Z,14.70
2023-05-11T00:18:09.066Z,13.88
2023-05-11T00:20:36.268Z,17.45
2023-05-11T00:23:03.008Z,17.42
2023-05-11T00:25:29.637Z,15.43
2023-05-11T00:27:56.375Z,15.93
2023-05-11T00:30:23.255Z,16.60
2023-05-11T00:32:51.968Z,14.60
2023-05-11T00:35:19.071Z,16.02
2023-05-11T00:37:45.805Z,16.05
2023-05-11T00:40:12.967Z,16.25
2023-05-11T00:42:39.698Z,17.40
2023-05-11T00:45:07.173Z,19.80
2023-05-11T00:47:33.945Z,16.48
2023-05-11T00:50:01.359Z,17.58
2023-05-11T00:52:28.168Z,19.20
2023-05-11T00:54:55.518Z,18.42
2023-05-11T00:57:22.296Z,18.63
2023-05-11T00:59:49.746Z,16.92
2023-05-11T01:02:20.027Z,18.42
2023-05-11T01:04:47.265Z,18.35
2023-05-11T01:07:26.018Z,17.23
2023-05-11T01:10:06.129Z,20.10
2023-05-11T01:13:13.879Z,18.98
2023-05-11T01:15:49.375Z,18.25
2023-05-11T01:18:27.158Z,17.20
2023-05-11T01:20:59.854Z,18.00
2023-05-11T01:24:01.369Z,18.80
2023-05-11T01:26:47.202Z,18.35
2023-05-11T01:29:42.972Z,18.33
2023-05-11T01:32:33.765Z,18.67
2023-05-11T01:35:13.553Z,17.27
2023-05-11T01:37:46.199Z,19.25
2023-05-11T01:40:17.231Z,19.10
2023-05-11T01:42:54.553Z,19.55
2023-05-11T01:45:25.711Z,19.35
2023-05-11T01:47:55.194Z,19.80
2023-05-11T01:50:24.364Z,17.02
2023-05-11T01:52:52.665Z,19.70
2023-05-11T01:55:22.027Z,18.55
2023-05-11T01:57:52.940Z,19.58
2023-05-11T02:00:20.859Z,18.67
2023-05-11T02:02:49.260Z,17.70
2023-05-11T02:05:20.644Z,19.52
2023-05-11T02:07:50.461Z,18.95
2023-05-11T02:10:18.730Z,19.35
2023-05-11T02:12:47.441Z,20.13
2023-05-11T02:15:16.152Z,19.73
2023-05-11T02:17:44.070Z,19.70
2023-05-11T02:20:11.810Z,18.45
2023-05-11T02:22:39.635Z,19.88
2023-05-11T02:25:08.615Z,20.90
2023-05-11T02:27:36.141Z,18.38
2023-05-11T02:30:08.228Z,20.13
2023-05-11T02:32:41.863Z,18.55
2023-05-11T02:35:24.034Z,18.23
2023-05-11T02:40:28.004Z,17.67
2023-05-11T02:43:00.395Z,17.95
2023-05-11T02:45:33.338Z,18.70
2023-05-11T02:48:05.282Z,18.10
2023-05-11T02:50:37.249Z,19.23
2023-05-11T02:53:10.405Z,19.63
2023-05-11T02:58:04.253Z,15.43
2023-05-11T03:00:31.317Z,18.15
2023-05-11T03:02:59.323Z,19.52
2023-05-11T03:05:26.844Z,21.38
2023-05-11T03:07:57.273Z,21.80
2023-05-11T03:10:29.317Z,21.35
2023-05-11T03:12:57.251Z,20.60
2023-05-11T03:15:25.136Z,20.45
2023-05-11T03:17:54.006Z,21.13
2023-05-11T03:20:23.556Z,21.50
2023-05-11T03:22:52.288Z,21.17
2023-05-11T03:25:21.649Z,20.15
2023-05-11T03:27:51.190Z,20.40
2023-05-11T03:30:20.060Z,20.70
2023-05-11T03:32:50.379Z,20.25
2023-05-11T03:35:17.453Z,20.80
2023-05-11T03:37:45.802Z,21.38
2023-05-11T03:40:16.690Z,22.05
2023-05-11T03:42:54.411Z,20.50
2023-05-11T03:45:22.944Z,22.70
2023-05-11T03:47:51.264Z,18.95
2023-05-11T03:50:19.554Z,19.27
2023-05-11T03:52:47.757Z,19.38
2023-05-11T03:55:14.423Z,21.40
2023-05-11T03:57:41.115Z,21.25
2023-05-11T04:00:10.464Z,18.92
2023-05-11T04:02:42.589Z,19.00
2023-05-11T04:05:12.367Z,18.30
2023-05-11T04:07:40.063Z,19.33
2023-05-11T04:10:08.486Z,18.10
2023-05-11T04:12:35.771Z,19.17
2023-05-11T04:15:02.573Z,18.40
2023-05-11T04:17:29.396Z,18.73
2023-05-11T04:19:56.180Z,18.83
2023-05-11T04:22:23.438Z,16.27
2023-05-11T04:24:50.153Z,18.42
2023-05-11T04:27:16.896Z,19.02
2023-05-11T04:29:44.944Z,18.23
2023-05-11T04:32:11.792Z,17.02
2023-05-11T04:34:39.084Z,18.65
2023-05-11T04:37:07.489Z,18.35
2023-05-11T04:39:35.582Z,17.35
2023-05-11T04:42:02.710Z,18.00
2023-05-11T04:44:30.181Z,17.63
2023-05-11T04:46:57.482Z,18.42
2023-05-11T04:49:24.336Z,17.35
2023-05-11T04:51:52.256Z,18.00
2023-05-11T04:54:19.055Z,17.42
2023-05-11T04:56:46.011Z,18.35
2023-05-11T04:59:14.386Z,16.83
2023-05-11T05:01:41.098Z,17.90
2023-05-11T05:04:08.737Z,18.27
2023-05-11T05:06:35.600Z,18.63
2023-05-11T05:09:03.291Z,15.88
2023-05-11T05:11:30.055Z,16.90
2023-05-11T05:13:56.875Z,16.30
2023-05-11T05:16:23.669Z,17.83
2023-05-11T05:18:50.591Z,19.35
2023-05-11T05:21:17.359Z,18.00
2023-05-11T05:23:45.070Z,17.63
2023-05-11T05:26:13.322Z,16.98
2023-05-11T05:28:41.088Z,17.75
2023-05-11T05:31:08.596Z,18.77
2023-05-11T05:33:35.503Z,19.30
2023-05-11T05:36:02.594Z,17.50
2023-05-11T05:38:29.438Z,18.17
2023-05-11T05:40:57.370Z,17.90
2023-05-11T05:43:25.983Z,17.08
2023-05-11T05:45:53.188Z,18.80
2023-05-11T05:48:20.148Z,17.63
2023-05-11T05:50:47.176Z,18.17
2023-05-11T05:53:14.284Z,17.48
2023-05-11T05:55:41.077Z,17.77
2023-05-11T05:58:08.810Z,17.63
2023-05-11T06:00:36.445Z,16.55
2023-05-11T06:03:06.905Z,18.02
2023-05-11T06:05:33.892Z,17.20
2023-05-11T06:08:10.102Z,17.38
2023-05-11T06:10:38.861Z,18.50
2023-05-11T06:13:07.428Z,18.27
2023-05-11T06:15:34.887Z,16.88
2023-05-11T06:18:08.935Z,16.83
2023-05-11T06:20:36.166Z,17.15
2023-05-11T06:23:05.318Z,19.42
2023-05-11T06:25:39.028Z,18.50
2023-05-11T06:28:06.884Z,18.30
2023-05-11T06:30:35.385Z,17.63
2023-05-11T06:33:02.625Z,18.23
2023-05-11T06:35:30.249Z,16.85
2023-05-11T06:37:57.503Z,19.58
2023-05-11T06:40:25.392Z,17.50
2023-05-11T06:42:52.511Z,17.25
2023-05-11T06:45:19.375Z,17.15
2023-05-11T06:47:46.694Z,17.00
2023-05-11T06:50:13.467Z,16.80
2023-05-11T06:52:40.289Z,16.75
2023-05-11T06:55:07.540Z,16.88
2023-05-11T06:57:34.347Z,16.20
2023-05-11T07:00:01.088Z,16.30
2023-05-11T07:02:27.987Z,15.63
2023-05-11T07:04:54.788Z,15.27
2023-05-11T07:07:22.681Z,15.75
2023-05-11T07:09:49.531Z,14.38
2023-05-11T07:12:16.494Z,13.60
2023-05-11T07:14:43.219Z,14.85
2023-05-11T07:17:10.047Z,14.57
2023-05-11T07:19:38.286Z,13.50
2023-05-11T07:22:05.876Z,13.95
2023-05-11T07:24:32.700Z,12.45
2023-05-11T07:26:59.449Z,14.10
2023-05-11T07:29:26.122Z,13.20
2023-05-11T07:31:52.893Z,13.82
2023-05-11T07:34:19.856Z,14.40
2023-05-11T07:36:46.804Z,13.70
2023-05-11T07:39:16.149Z,13.35
2023-05-11T07:41:43.222Z,14.25
2023-05-11T07:44:10.182Z,13.18
2023-05-11T07:46:37.043Z,13.15
2023-05-11T07:49:15.709Z,13.07
2023-05-11T07:51:47.776Z,13.52
2023-05-11T07:54:14.577Z,13.27
2023-05-11T07:56:41.865Z,13.23
2023-05-11T07:59:08.806Z,12.60
2023-05-11T08:01:35.876Z,12.55
2023-05-11T08:04:05.881Z,12.30
2023-05-11T08:06:32.977Z,12.43
2023-05-11T08:08:59.860Z,13.13
2023-05-11T08:11:27.492Z,13.13
2023-05-11T08:13:54.409Z,11.25
2023-05-11T08:16:21.185Z,12.68
2023-05-11T08:18:48.015Z,12.40
2023-05-11T08:21:14.788Z,13.45
2023-05-11T08:23:42.915Z,12.43
2023-05-11T08:26:11.400Z,12.77
2023-05-11T08:28:38.100Z,12.82
2023-05-11T08:31:05.639Z,14.38
2023-05-11T08:33:37.978Z,12.93
2023-05-11T08:36:06.826Z,14.73
2023-05-11T08:38:35.309Z,13.55
2023-05-11T08:41:02.932Z,14.52
2023-05-11T08:43:32.283Z,13.73
2023-05-11T08:46:04.310Z,13.77
2023-05-11T08:48:31.861Z,15.00
2023-05-11T08:50:59.682Z,14.55
2023-05-11T08:53:26.600Z,14.25
2023-05-11T08:55:57.889Z,12.55
2023-05-11T08:58:25.594Z,13.10
2023-05-11T09:00:52.432Z,12.65
2023-05-11T09:03:19.800Z,13.57
2023-05-11T09:05:47.508Z,12.52
2023-05-11T09:08:15.649Z,10.65
2023-05-11T09:10:44.286Z,11.68
2023-05-11T09:13:11.480Z,10.98
2023-05-11T09:15:38.587Z,11.00
2023-05-11T09:18:05.826Z,11.40
2023-05-11T09:20:34.766Z,9.45
2023-05-11T09:23:01.913Z,10.55
2023-05-11T09:25:33.507Z,11.13
2023-05-11T09:28:00.727Z,11.70
2023-05-11T09:30:28.511Z,10.38
2023-05-11T09:32:57.621Z,9.65
2023-05-11T09:35:29.090Z,9.85
2023-05-11T09:38:10.153Z,9.20
2023-05-11T09:40:37.594Z,8.68
2023-05-11T09:43:19.013Z,8.30
2023-05-11T09:45:47.786Z,8.52
2023-05-11T09:48:26.104Z,7.85
2023-05-11T09:51:03.401Z,9.32
2023-05-11T09:53:45.815Z,8.63
2023-05-11T09:58:57.773Z,8.50
2023-05-11T10:01:32.682Z,9.77
2023-05-11T10:04:21.511Z,8.48
2023-05-11T10:06:53.414Z,9.15
2023-05-11T10:09:25.444Z,8.60
2023-05-11T10:11:53.582Z,8.32
2023-05-11T10:14:21.875Z,7.10
2023-05-11T10:16:48.635Z,7.70
2023-05-11T10:19:16.481Z,7.95
2023-05-11T10:21:44.002Z,7.43
2023-05-11T10:24:11.293Z,7.95
2023-05-11T10:26:38.696Z,7.70
2023-05-11T10:29:05.832Z,7.43
2023-05-11T10:31:33.350Z,7.38
2023-05-11T10:34:01.598Z,8.02
2023-05-11T10:36:28.562Z,8.88
2023-05-11T10:38:55.347Z,9.50
2023-05-11T10:41:22.242Z,9.65
2023-05-11T10:43:52.397Z,8.65
2023-05-11T10:46:52.494Z,7.85
2023-05-11T10:49:45.756Z,8.90
2023-05-11T10:52:24.463Z,9.32
2023-05-11T10:55:13.408Z,8.80
2023-05-11T10:58:19.473Z,8.63
2023-05-11T11:01:06.192Z,8.60
2023-05-11T11:03:33.001Z,8.90
2023-05-11T11:06:00.879Z,8.63
2023-05-11T11:08:28.577Z,9.95
2023-05-11T11:10:56.214Z,7.80
2023-05-11T11:13:24.323Z,8.35
2023-05-11T11:15:54.616Z,10.00
2023-05-11T11:18:30.215Z,9.82
2023-05-11T11:20:59.052Z,9.38
2023-05-11T11:23:42.273Z,8.48
2023-05-11T11:26:11.008Z,9.05
2023-05-11T11:29:00.708Z,8.65
2023-05-11T11:31:32.702Z,8.38
2023-05-11T11:34:19.156Z,7.55
2023-05-11T11:36:54.810Z,10.52
2023-05-11T11:39:43.145Z,9.88
2023-05-11T11:42:11.310Z,9.10
2023-05-11T11:44:39.284Z,9.52
2023-05-11T11:47:16.951Z,9.52
2023-05-11T11:49:46.406Z,10.25
2023-05-11T11:52:26.368Z,11.48
2023-05-11T11:54:53.226Z,10.63
2023-05-11T11:57:34.990Z,10.65
2023-05-11T12:00:07.390Z,11.80
2023-05-11T12:02:42.057Z,11.88
2023-05-11T12:05:15.010Z,11.82
2023-05-11T12:07:43.578Z,12.85
2023-05-11T12:10:13.477Z,12.70
2023-05-11T12:12:40.941Z,12.13
2023-05-11T12:15:08.150Z,12.25
2023-05-11T12:17:38.600Z,11.10
2023-05-11T12:20:14.231Z,10.07
2023-05-11T12:22:41.562Z,8.10
2023-05-11T12:25:11.214Z,8.30
2023-05-11T12:27:47.627Z,6.80
2023-05-11T12:30:34.666Z,8.43
2023-05-11T12:33:04.151Z,8.88
2023-05-11T12:35:33.477Z,7.97
2023-05-11T12:38:02.620Z,7.65
2023-05-11T12:40:30.817Z,8.52
2023-05-11T12:42:59.509Z,6.75
2023-05-11T12:45:27.452Z,6.75
2023-05-11T12:47:56.174Z,7.47
2023-05-11T12:50:23.290Z,6.97
2023-05-11T12:52:50.743Z,7.07
2023-05-11T12:55:28.672Z,8.45
2023-05-11T12:58:14.414Z,7.90
2023-05-11T13:00:55.218Z,7.07
2023-05-11T13:03:27.430Z,7.10
2023-05-11T13:08:44.045Z,6.13
2023-05-11T13:11:17.351Z,5.30
2023-05-11T13:13:44.723Z,4.70
2023-05-11T13:16:11.949Z,4.72
2023-05-11T13:18:38.770Z,4.63
2023-05-11T13:21:09.446Z,5.20
2023-05-11T13:23:36.962Z,4.85
2023-05-11T13:26:03.684Z,4.70
2023-05-11T13:28:30.568Z,5.28
2023-05-11T13:31:02.294Z,4.57
2023-05-11T13:33:29.259Z,5.32
2023-05-11T13:35:56.014Z,4.38
2023-05-11T13:38:23.084Z,3.78
2023-05-11T13:40:49.864Z,4.63
2023-05-11T13:43:16.643Z,4.65
2023-05-11T13:45:43.355Z,4.03
2023-05-11T13:48:10.887Z,4.10
2023-05-11T13:50:37.879Z,4.30
2023-05-11T13:53:04.785Z,5.00
2023-05-11T13:55:31.603Z,5.68
2023-05-11T13:57:58.449Z,5.22
2023-05-11T14:00:25.280Z,4.88
2023-05-11T14:02:52.517Z,4.85
2023-05-11T14:05:19.689Z,4.82
2023-05-11T14:07:48.189Z,4.32
2023-05-11T14:10:16.941Z,4.53
2023-05-11T14:12:43.801Z,4.68
2023-05-11T14:15:11.282Z,3.70
2023-05-11T14:17:38.340Z,3.47
2023-05-11T14:20:06.013Z,4.07
2023-05-11T14:22:32.928Z,4.15
2023-05-11T14:24:59.995Z,4.20
2023-05-11T14:27:26.760Z,4.13
2023-05-11T14:29:54.942Z,4.22
2023-05-11T14:32:21.682Z,4.13
2023-05-11T14:34:48.653Z,4.05
2023-05-11T14:37:15.426Z,3.00
2023-05-11T14:39:42.440Z,3.25
2023-05-11T14:42:09.771Z,2.90
2023-05-11T14:44:36.446Z,2.28
2023-05-11T14:47:03.345Z,1.95
2023-05-11T14:49:30.060Z,2.30
2023-05-11T14:51:57.738Z,2.40
2023-05-11T14:54:24.621Z,2.42
2023-05-11T14:56:54.198Z,2.22
2023-05-11T14:59:21.739Z,2.40
2023-05-11T15:01:49.531Z,2.40
2023-05-11T15:04:16.967Z,2.53
2023-05-11T15:06:44.164Z,2.85
2023-05-11T15:09:11.058Z,2.30
2023-05-11T15:11:37.808Z,2.13
2023-05-11T15:14:06.393Z,2.20
2023-05-11T15:16:33.191Z,1.63
2023-05-11T15:19:00.100Z,2.00
2023-05-11T15:21:27.467Z,2.63
2023-05-11T15:23:54.278Z,2.25
2023-05-11T15:26:22.195Z,1.50
2023-05-11T15:28:49.249Z,1.83
2023-05-11T15:31:16.190Z,1.60
2023-05-11T15:33:43.490Z,1.63
2023-05-11T15:36:14.296Z,1.90
2023-05-11T15:38:42.504Z,1.83
2023-05-11T15:41:09.531Z,2.58
2023-05-11T15:43:36.307Z,3.13
2023-05-11T15:46:07.145Z,3.03
2023-05-11T15:48:34.206Z,3.10
2023-05-11T15:51:01.260Z,3.40
2023-05-11T15:53:28.639Z,3.85
2023-05-11T15:55:55.802Z,4.15
2023-05-11T15:58:23.191Z,4.68
2023-05-11T16:00:50.466Z,4.63
2023-05-11T16:03:17.915Z,5.53
2023-05-11T16:05:45.490Z,5.28
2023-05-11T16:08:13.127Z,4.65
2023-05-11T16:10:40.497Z,5.70
2023-05-11T16:13:08.019Z,6.15
2023-05-11T16:15:34.691Z,5.38
2023-05-11T16:18:03.980Z,6.00
2023-05-11T16:20:31.714Z,6.25
2023-05-11T16:22:58.433Z,6.22
2023-05-11T16:25:25.217Z,7.38
2023-05-11T16:27:52.805Z,7.15
2023-05-11T16:30:25.119Z,7.68
2023-05-11T16:32:55.666Z,9.10
2023-05-11T16:35:22.443Z,8.32
2023-05-11T16:37:49.319Z,7.30
2023-05-11T16:40:21.564Z,7.90
2023-05-11T16:42:48.898Z,7.55
2023-05-11T16:45:16.592Z,7.28
2023-05-11T16:47:46.712Z,5.78
2023-05-11T16:50:14.787Z,6.50
2023-05-11T16:52:42.372Z,7.32
2023-05-11T16:55:09.693Z,6.72
2023-05-11T16:57:38.421Z,7.05
2023-05-11T17:00:06.674Z,7.53
2023-05-11T17:02:33.732Z,7.35
2023-05-11T17:05:00.743Z,6.35
2023-05-11T17:07:27.588Z,6.65
2023-05-11T17:09:57.275Z,7.63
2023-05-11T17:12:24.557Z,6.70
2023-05-11T17:14:51.690Z,6.95
2023-05-11T17:17:18.420Z,6.47
2023-05-11T17:19:45.215Z,6.93
2023-05-11T17:22:12.045Z,6.30
2023-05-11T17:24:38.782Z,6.50
2023-05-11T17:27:05.672Z,6.20
2023-05-11T17:29:32.447Z,6.70
2023-05-11T17:31:59.303Z,6.50
2023-05-11T17:34:28.525Z,6.30
2023-05-11T17:36:56.688Z,6.32
2023-05-11T17:39:23.533Z,6.13
2023-05-11T17:41:50.504Z,5.47
2023-05-11T17:44:17.287Z,5.75
2023-05-11T17:46:43.981Z,5.55
2023-05-11T17:49:10.976Z,5.55
2023-05-11T17:51:37.736Z,6.15
2023-05-11T17:54:04.464Z,5.95
2023-05-11T17:56:31.560Z,6.78
2023-05-11T17:58:58.375Z,6.30
2023-05-11T18:01:27.369Z,6.85
2023-05-11T18:03:54.531Z,5.75
2023-05-11T18:06:21.659Z,6.25
2023-05-11T18:08:48.725Z,6.32
2023-05-11T18:11:15.686Z,6.85
2023-05-11T18:13:42.799Z,6.97
2023-05-11T18:16:09.577Z,7.05
2023-05-11T18:18:36.754Z,7.45
2023-05-11T18:21:07.276Z,6.68
2023-05-11T18:23:34.557Z,7.10
2023-05-11T18:26:01.458Z,7.25
2023-05-11T18:28:28.255Z,5.93
2023-05-11T18:30:55.196Z,6.03
2023-05-11T18:33:22.246Z,6.18
2023-05-11T18:35:50.859Z,5.93
2023-05-11T18:38:18.126Z,5.57
2023-05-11T18:40:45.207Z,4.63
2023-05-11T18:43:12.258Z,4.18
2023-05-11T18:45:40.782Z,5.00
2023-05-11T18:48:07.557Z,4.63
2023-05-11T18:50:34.614Z,4.00
2023-05-11T18:53:02.094Z,4.40
2023-05-11T18:55:30.956Z,4.47
2023-05-11T18:57:57.967Z,4.50
2023-05-11T19:00:24.775Z,4.35
2023-05-11T19:02:52.019Z,4.47
2023-05-11T19:05:19.290Z,4.40
2023-05-11T19:07:46.432Z,4.35
2023-05-11T19:10:13.422Z,5.05
2023-05-11T19:12:40.358Z,5.00
2023-05-11T19:15:08.547Z,4.88
2023-05-11T19:17:35.283Z,5.55
2023-05-11T19:20:02.240Z,5.78
2023-05-11T19:22:28.958Z,6.78
2023-05-11T19:24:55.601Z,8.18
2023-05-11T19:27:22.512Z,7.85
2023-05-11T19:29:50.604Z,8.63
2023-05-11T19:32:18.900Z,9.70
2023-05-11T19:34:45.950Z,9.98
2023-05-11T19:37:12.701Z,10.43
2023-05-11T19:39:39.434Z,11.07
2023-05-11T19:42:06.404Z,10.50
2023-05-11T19:44:34.652Z,11.25
2023-05-11T19:47:01.378Z,10.98
2023-05-11T19:49:29.254Z,10.32
2023-05-11T19:51:56.023Z,10.77
2023-05-11T19:54:22.900Z,10.38
2023-05-11T19:56:49.599Z,11.40
2023-05-11T19:59:17.736Z,10.75
2023-05-11T20:01:44.586Z,10.50
2023-05-11T20:04:12.746Z,10.48
2023-05-11T20:06:39.874Z,10.23
2023-05-11T20:09:07.404Z,11.02
2023-05-11T20:11:34.010Z,10.77
2023-05-11T20:14:00.785Z,9.98
2023-05-11T20:16:30.155Z,10.50
2023-05-11T20:18:59.108Z,10.50
2023-05-11T20:21:26.243Z,10.25
2023-05-11T20:23:52.943Z,10.98
2023-05-11T20:26:19.611Z,11.02
2023-05-11T20:28:46.337Z,10.93
2023-05-11T20:31:13.011Z,11.57
2023-05-11T20:36:09.343Z,10.90
2023-05-11T20:38:36.130Z,10.82
2023-05-11T20:41:03.008Z,11.35
2023-05-11T20:43:29.773Z,11.30
2023-05-11T20:46:04.921Z,10.90
2023-05-11T20:48:40.718Z,10.93
2023-05-11T20:51:29.068Z,10.00
2023-05-11T20:53:57.658Z,10.30
2023-05-11T20:56:24.403Z,11.93
2023-05-11T21:00:03.531Z,11.32
2023-05-11T21:01:45.628Z,10.85
2023-05-11T21:04:24.611Z,10.65
2023-05-11T21:06:55.737Z,10.45
2023-05-11T21:09:22.395Z,10.63
2023-05-11T21:11:49.099Z,10.57
2023-05-11T21:14:15.927Z,10.63
2023-05-11T21:16:42.806Z,10.45
2023-05-11T21:19:09.743Z,10.15
2023-05-11T21:21:36.670Z,11.18
2023-05-11T21:24:04.081Z,10.38
2023-05-11T21:26:31.913Z,10.38
2023-05-11T21:28:58.556Z,10.32
2023-05-11T21:31:25.361Z,10.18
2023-05-11T21:33:52.360Z,10.60
2023-05-11T21:36:19.470Z,10.98
2023-05-11T21:38:46.196Z,9.85
2023-05-11T21:41:12.893Z,10.27
2023-05-11T21:43:39.573Z,11.80
2023-05-11T21:46:06.368Z,11.00
2023-05-11T21:48:33.334Z,10.90
2023-05-11T21:51:00.104Z,11.43
2023-05-11T21:53:27.147Z,11.15
2023-05-11T21:55:54.045Z,12.48
2023-05-11T21:58:20.950Z,12.13
2023-05-11T22:00:47.866Z,12.63
2023-05-11T22:03:14.615Z,13.35
2023-05-11T22:05:41.841Z,12.95
2023-05-11T22:08:14.872Z,13.88
2023-05-11T22:10:43.899Z,13.98
2023-05-11T22:13:10.707Z,13.88
2023-05-11T22:15:37.444Z,15.63
2023-05-11T22:18:04.916Z,14.18
2023-05-11T22:20:31.885Z,14.13
2023-05-11T22:22:59.159Z,14.60
2023-05-11T22:25:26.073Z,15.93
2023-05-11T22:27:52.868Z,14.68
2023-05-11T22:30:20.165Z,15.82
2023-05-11T22:32:47.268Z,16.60
2023-05-11T22:35:15.282Z,15.82
2023-05-11T22:37:43.972Z,14.73
2023-05-11T22:40:11.242Z,15.25
2023-05-11T22:42:38.042Z,15.02
2023-05-11T22:45:05.398Z,15.82
2023-05-11T22:47:32.094Z,14.85
2023-05-11T22:49:58.787Z,14.35
2023-05-11T22:52:25.466Z,12.68
2023-05-11T22:54:57.793Z,12.00
2023-05-11T22:57:26.341Z,11.88
2023-05-11T22:59:53.494Z,13.05
2023-05-11T23:02:20.940Z,12.52
2023-05-11T23:04:52.155Z,13.02
2023-05-11T23:07:19.566Z,12.23
2023-05-11T23:09:46.596Z,11.57
2023-05-11T23:12:13.608Z,10.77
2023-05-11T23:14:40.312Z,9.95
2023-05-11T23:17:07.247Z,11.40
2023-05-11T23:19:34.156Z,12.20
2023-05-11T23:22:01.094Z,11.82
2023-05-11T23:24:28.831Z,11.43
2023-05-11T23:26:55.878Z,11.05
2023-05-11T23:29:23.002Z,11.38
2023-05-11T23:31:50.950Z,11.85
2023-05-11T23:34:17.789Z,11.60
2023-05-11T23:36:44.511Z,10.35
2023-05-11T23:39:11.380Z,10.35
2023-05-11T23:41:38.621Z,11.15
2023-05-11T23:44:05.578Z,10.50
2023-05-11T23:46:32.530Z,11.13
2023-05-11T23:48:59.322Z,11.68
2023-05-11T23:51:26.133Z,11.32
2023-05-11T23:53:53.162Z,11.55
2023-05-11T23:56:19.912Z,11.10
2023-05-11T23:58:46.660Z,11.73
